SBOSBO KOK / EFKK
Speedbird OnlineSpeedbird Online KOK / EFKK

Kokkola-Pietarsaari Airport
01:49 5.1°C

Location Kruunupyy, Finland
Latitude: 63.721199035645
Longitude: 23.143100738525
Local Time 01:49 on 26 May 2024
UTC +3 hours (Europe/Helsinki)
Currency £1 equals EUR 1.17
METAR EFKK 252220Z AUTO 06002KT CAVOK 04/00 Q1028
TAF
Weather As Of 26 May 2024 01:49
Description Clear sky
Wind 4 km/h from North-East (60°)
Cloud Cover 0%
Precipitation Rain: none, Snow: none
Sunrise 03:44
Sunset 23:05
NOTAM 5 active NOTAM
Rotations During the last 90 days there were
20 flights from HEL
1 flights from KEM
23 flights to KEM
1 flights to HEL
Web Airport Website | Wikipedia
Codes IATA: KOK
ICAO: EFKK
Altitude 26 Meter / 84 Feet
Distance 1,909 KM / 1,186 Miles
from London.
Runways
RunwayLength (m)Surface
012500Asphalt
11700Asphalt
192500Asphalt
29700Asphalt
Radio
TypeDescriptionFrequency
ATISATIS125.025
TWRTWR120.1
Live ATC



Support Speedbird Online

© 2017-2024 Speedbird Online